sensor_id;sensor_type;location;lat;lon;timestamp;P1;durP1;ratioP1;P2;durP2;ratioP2
4597;SDS011;62772;48.646;8.906;2023-10-31T00:02:17;2.00;;;1.17;;
4597;SDS011;62772;48.646;8.906;2023-10-31T00:07:18;1.87;;;1.10;;
4597;SDS011;62772;48.646;8.906;2023-10-31T00:12:18;2.20;;;1.20;;
4597;SDS011;62772;48.646;8.906;2023-10-31T00:17:19;1.73;;;1.00;;
4597;SDS011;62772;48.646;8.906;2023-10-31T00:22:20;4.23;;;1.30;;
4597;SDS011;62772;48.646;8.906;2023-10-31T00:27:20;1.90;;;1.20;;
4597;SDS011;62772;48.646;8.906;2023-10-31T00:32:22;1.80;;;1.10;;
4597;SDS011;62772;48.646;8.906;2023-10-31T00:37:22;3.50;;;1.20;;
4597;SDS011;62772;48.646;8.906;2023-10-31T00:42:23;1.90;;;1.30;;
4597;SDS011;62772;48.646;8.906;2023-10-31T00:47:23;2.23;;;1.30;;
4597;SDS011;62772;48.646;8.906;2023-10-31T00:52:24;1.90;;;1.10;;
4597;SDS011;62772;48.646;8.906;2023-10-31T00:57:24;1.97;;;1.27;;
4597;SDS011;62772;48.646;8.906;2023-10-31T01:02:25;2.00;;;1.27;;
4597;SDS011;62772;48.646;8.906;2023-10-31T01:07:25;2.30;;;1.43;;
4597;SDS011;62772;48.646;8.906;2023-10-31T01:12:26;2.40;;;1.30;;
4597;SDS011;62772;48.646;8.906;2023-10-31T01:17:28;2.17;;;1.30;;
4597;SDS011;62772;48.646;8.906;2023-10-31T01:22:28;2.47;;;1.33;;
4597;SDS011;62772;48.646;8.906;2023-10-31T01:27:28;2.10;;;1.30;;
4597;SDS011;62772;48.646;8.906;2023-10-31T01:32:29;2.03;;;1.30;;
4597;SDS011;62772;48.646;8.906;2023-10-31T01:37:30;3.80;;;1.50;;
4597;SDS011;62772;48.646;8.906;2023-10-31T01:42:30;2.40;;;1.40;;
4597;SDS011;62772;48.646;8.906;2023-10-31T01:47:31;2.50;;;1.40;;
4597;SDS011;62772;48.646;8.906;2023-10-31T01:52:31;2.23;;;1.57;;
4597;SDS011;62772;48.646;8.906;2023-10-31T01:57:33;2.27;;;1.53;;
4597;SDS011;62772;48.646;8.906;2023-10-31T02:02:33;3.30;;;1.93;;
4597;SDS011;62772;48.646;8.906;2023-10-31T02:07:35;6.23;;;1.90;;
4597;SDS011;62772;48.646;8.906;2023-10-31T02:12:36;3.17;;;1.80;;
4597;SDS011;62772;48.646;8.906;2023-10-31T02:17:37;3.43;;;1.63;;
4597;SDS011;62772;48.646;8.906;2023-10-31T02:22:38;2.23;;;1.60;;
4597;SDS011;62772;48.646;8.906;2023-10-31T02:27:38;2.47;;;1.70;;
4597;SDS011;62772;48.646;8.906;2023-10-31T02:32:38;3.57;;;1.60;;
4597;SDS011;62772;48.646;8.906;2023-10-31T02:37:39;4.50;;;1.80;;
4597;SDS011;62772;48.646;8.906;2023-10-31T02:42:39;2.80;;;1.90;;
4597;SDS011;62772;48.646;8.906;2023-10-31T02:47:40;2.20;;;1.50;;
4597;SDS011;62772;48.646;8.906;2023-10-31T02:52:40;4.63;;;1.60;;
4597;SDS011;62772;48.646;8.906;2023-10-31T02:57:41;3.53;;;1.47;;
4597;SDS011;62772;48.646;8.906;2023-10-31T03:02:41;2.53;;;1.40;;
4597;SDS011;62772;48.646;8.906;2023-10-31T03:07:42;2.20;;;1.40;;
4597;SDS011;62772;48.646;8.906;2023-10-31T03:12:42;2.03;;;1.40;;
4597;SDS011;62772;48.646;8.906;2023-10-31T03:17:43;2.57;;;1.60;;
4597;SDS011;62772;48.646;8.906;2023-10-31T03:22:43;2.50;;;1.50;;
4597;SDS011;62772;48.646;8.906;2023-10-31T03:27:44;3.70;;;1.40;;
4597;SDS011;62772;48.646;8.906;2023-10-31T03:32:44;2.40;;;1.70;;
4597;SDS011;62772;48.646;8.906;2023-10-31T03:37:45;2.30;;;1.50;;
4597;SDS011;62772;48.646;8.906;2023-10-31T03:42:45;3.17;;;1.50;;
4597;SDS011;62772;48.646;8.906;2023-10-31T03:47:46;2.27;;;1.57;;
4597;SDS011;62772;48.646;8.906;2023-10-31T03:52:46;2.10;;;1.40;;
4597;SDS011;62772;48.646;8.906;2023-10-31T03:57:47;3.37;;;1.80;;
4597;SDS011;62772;48.646;8.906;2023-10-31T04:02:47;2.20;;;1.40;;
4597;SDS011;62772;48.646;8.906;2023-10-31T04:07:49;2.87;;;1.53;;
4597;SDS011;62772;48.646;8.906;2023-10-31T04:12:50;2.30;;;1.40;;
4597;SDS011;62772;48.646;8.906;2023-10-31T04:17:50;3.27;;;1.53;;
4597;SDS011;62772;48.646;8.906;2023-10-31T04:22:51;3.00;;;1.50;;
4597;SDS011;62772;48.646;8.906;2023-10-31T04:27:52;2.77;;;1.40;;
4597;SDS011;62772;48.646;8.906;2023-10-31T04:32:52;3.30;;;1.83;;
4597;SDS011;62772;48.646;8.906;2023-10-31T04:37:52;3.30;;;2.10;;
4597;SDS011;62772;48.646;8.906;2023-10-31T04:42:54;3.03;;;2.20;;
4597;SDS011;62772;48.646;8.906;2023-10-31T04:47:54;3.70;;;2.30;;
4597;SDS011;62772;48.646;8.906;2023-10-31T04:52:55;4.60;;;2.00;;
4597;SDS011;62772;48.646;8.906;2023-10-31T04:57:55;3.43;;;1.80;;
4597;SDS011;62772;48.646;8.906;2023-10-31T05:02:55;2.63;;;1.80;;
4597;SDS011;62772;48.646;8.906;2023-10-31T05:07:58;3.10;;;1.57;;
4597;SDS011;62772;48.646;8.906;2023-10-31T05:12:58;4.13;;;1.50;;
4597;SDS011;62772;48.646;8.906;2023-10-31T05:18:01;2.70;;;1.50;;
4597;SDS011;62772;48.646;8.906;2023-10-31T05:23:01;2.60;;;1.53;;
4597;SDS011;62772;48.646;8.906;2023-10-31T05:28:02;2.10;;;1.40;;
4597;SDS011;62772;48.646;8.906;2023-10-31T05:33:02;2.30;;;1.60;;
4597;SDS011;62772;48.646;8.906;2023-10-31T05:38:03;3.50;;;1.60;;
4597;SDS011;62772;48.646;8.906;2023-10-31T05:43:03;2.70;;;1.47;;
4597;SDS011;62772;48.646;8.906;2023-10-31T05:48:04;2.00;;;1.30;;
4597;SDS011;62772;48.646;8.906;2023-10-31T05:53:05;3.30;;;1.70;;
4597;SDS011;62772;48.646;8.906;2023-10-31T05:58:06;3.13;;;2.00;;
4597;SDS011;62772;48.646;8.906;2023-10-31T06:03:06;3.27;;;1.70;;
4597;SDS011;62772;48.646;8.906;2023-10-31T06:08:08;3.20;;;1.60;;
4597;SDS011;62772;48.646;8.906;2023-10-31T06:13:09;3.77;;;1.87;;
4597;SDS011;62772;48.646;8.906;2023-10-31T06:18:09;3.00;;;1.80;;
4597;SDS011;62772;48.646;8.906;2023-10-31T06:23:10;3.83;;;1.57;;
4597;SDS011;62772;48.646;8.906;2023-10-31T06:28:10;4.47;;;1.90;;
4597;SDS011;62772;48.646;8.906;2023-10-31T06:33:11;3.60;;;2.20;;
4597;SDS011;62772;48.646;8.906;2023-10-31T06:38:12;3.30;;;2.00;;
4597;SDS011;62772;48.646;8.906;2023-10-31T06:43:13;5.23;;;2.53;;
4597;SDS011;62772;48.646;8.906;2023-10-31T06:48:13;8.20;;;3.47;;
4597;SDS011;62772;48.646;8.906;2023-10-31T06:53:14;4.20;;;2.17;;
4597;SDS011;62772;48.646;8.906;2023-10-31T06:58:14;4.33;;;2.27;;
4597;SDS011;62772;48.646;8.906;2023-10-31T07:03:14;3.73;;;2.00;;
4597;SDS011;62772;48.646;8.906;2023-10-31T07:08:16;3.63;;;2.30;;
4597;SDS011;62772;48.646;8.906;2023-10-31T07:13:16;4.20;;;2.40;;
4597;SDS011;62772;48.646;8.906;2023-10-31T07:18:17;3.80;;;2.20;;
4597;SDS011;62772;48.646;8.906;2023-10-31T07:23:18;4.90;;;2.20;;
4597;SDS011;62772;48.646;8.906;2023-10-31T07:28:19;4.83;;;2.20;;
4597;SDS011;62772;48.646;8.906;2023-10-31T07:33:19;3.50;;;2.23;;
4597;SDS011;62772;48.646;8.906;2023-10-31T07:38:20;4.23;;;2.07;;
4597;SDS011;62772;48.646;8.906;2023-10-31T07:43:20;3.60;;;2.10;;
4597;SDS011;62772;48.646;8.906;2023-10-31T07:48:21;4.20;;;2.30;;
4597;SDS011;62772;48.646;8.906;2023-10-31T07:53:22;4.17;;;2.03;;
4597;SDS011;62772;48.646;8.906;2023-10-31T07:58:22;2.97;;;2.17;;
4597;SDS011;62772;48.646;8.906;2023-10-31T08:03:23;4.27;;;2.20;;
4597;SDS011;62772;48.646;8.906;2023-10-31T08:08:24;3.30;;;2.10;;
4597;SDS011;62772;48.646;8.906;2023-10-31T08:13:24;3.07;;;1.77;;
4597;SDS011;62772;48.646;8.906;2023-10-31T08:18:24;4.53;;;2.20;;
4597;SDS011;62772;48.646;8.906;2023-10-31T08:23:25;8.33;;;2.13;;
4597;SDS011;62772;48.646;8.906;2023-10-31T08:28:25;3.70;;;2.20;;
4597;SDS011;62772;48.646;8.906;2023-10-31T08:33:26;4.20;;;2.50;;
4597;SDS011;62772;48.646;8.906;2023-10-31T08:38:26;3.73;;;2.50;;
4597;SDS011;62772;48.646;8.906;2023-10-31T08:43:28;6.90;;;3.70;;
4597;SDS011;62772;48.646;8.906;2023-10-31T08:48:29;22.70;;;13.07;;
4597;SDS011;62772;48.646;8.906;2023-10-31T08:53:29;9.80;;;4.20;;
4597;SDS011;62772;48.646;8.906;2023-10-31T08:58:30;5.77;;;3.17;;
4597;SDS011;62772;48.646;8.906;2023-10-31T09:03:30;6.60;;;2.40;;
4597;SDS011;62772;48.646;8.906;2023-10-31T09:08:31;12.50;;;2.77;;
4597;SDS011;62772;48.646;8.906;2023-10-31T09:13:32;5.37;;;2.60;;
4597;SDS011;62772;48.646;8.906;2023-10-31T09:18:33;5.20;;;2.77;;
4597;SDS011;62772;48.646;8.906;2023-10-31T09:23:34;6.77;;;2.70;;
4597;SDS011;62772;48.646;8.906;2023-10-31T09:28:38;5.10;;;2.67;;
4597;SDS011;62772;48.646;8.906;2023-10-31T09:33:39;3.07;;;1.90;;
4597;SDS011;62772;48.646;8.906;2023-10-31T09:38:40;5.40;;;2.50;;
4597;SDS011;62772;48.646;8.906;2023-10-31T09:43:40;4.53;;;2.03;;
4597;SDS011;62772;48.646;8.906;2023-10-31T09:48:42;9.00;;;2.17;;
4597;SDS011;62772;48.646;8.906;2023-10-31T09:53:44;4.30;;;2.10;;
4597;SDS011;62772;48.646;8.906;2023-10-31T09:58:45;5.60;;;2.40;;
4597;SDS011;62772;48.646;8.906;2023-10-31T10:03:47;4.43;;;2.20;;
4597;SDS011;62772;48.646;8.906;2023-10-31T10:08:48;3.30;;;2.00;;
4597;SDS011;62772;48.646;8.906;2023-10-31T10:13:48;2.70;;;1.80;;
4597;SDS011;62772;48.646;8.906;2023-10-31T10:18:48;2.40;;;1.63;;
4597;SDS011;62772;48.646;8.906;2023-10-31T10:23:51;5.57;;;2.47;;
4597;SDS011;62772;48.646;8.906;2023-10-31T10:28:52;4.70;;;1.97;;
4597;SDS011;62772;48.646;8.906;2023-10-31T10:33:52;3.83;;;1.60;;
4597;SDS011;62772;48.646;8.906;2023-10-31T10:38:56;3.53;;;1.50;;
4597;SDS011;62772;48.646;8.906;2023-10-31T10:44:03;3.20;;;1.90;;
4597;SDS011;62772;48.646;8.906;2023-10-31T10:49:07;3.50;;;1.50;;
4597;SDS011;62772;48.646;8.906;2023-10-31T10:54:26;3.40;;;1.37;;
4597;SDS011;62772;48.646;8.906;2023-10-31T10:59:39;3.50;;;1.80;;
4597;SDS011;62772;48.646;8.906;2023-10-31T11:04:42;3.60;;;1.80;;
4597;SDS011;62772;48.646;8.906;2023-10-31T11:09:43;2.50;;;1.47;;
4597;SDS011;62772;48.646;8.906;2023-10-31T11:14:46;3.13;;;1.80;;
4597;SDS011;62772;48.646;8.906;2023-10-31T11:19:47;3.57;;;1.50;;
4597;SDS011;62772;48.646;8.906;2023-10-31T11:24:48;4.80;;;1.97;;
4597;SDS011;62772;48.646;8.906;2023-10-31T11:29:49;2.87;;;1.50;;
4597;SDS011;62772;48.646;8.906;2023-10-31T11:34:50;4.50;;;1.70;;
4597;SDS011;62772;48.646;8.906;2023-10-31T11:45:13;3.07;;;1.30;;
4597;SDS011;62772;48.646;8.906;2023-10-31T11:50:24;3.60;;;1.50;;
4597;SDS011;62772;48.646;8.906;2023-10-31T11:55:24;2.67;;;1.70;;
4597;SDS011;62772;48.646;8.906;2023-10-31T12:00:25;4.00;;;1.60;;
4597;SDS011;62772;48.646;8.906;2023-10-31T12:05:26;2.03;;;1.20;;
4597;SDS011;62772;48.646;8.906;2023-10-31T12:10:28;2.27;;;1.30;;
4597;SDS011;62772;48.646;8.906;2023-10-31T12:15:32;2.70;;;1.50;;
4597;SDS011;62772;48.646;8.906;2023-10-31T12:20:32;3.23;;;2.00;;
4597;SDS011;62772;48.646;8.906;2023-10-31T12:25:33;2.93;;;1.60;;
4597;SDS011;62772;48.646;8.906;2023-10-31T12:30:36;2.20;;;1.20;;
4597;SDS011;62772;48.646;8.906;2023-10-31T12:35:45;3.50;;;1.57;;
4597;SDS011;62772;48.646;8.906;2023-10-31T12:40:46;3.63;;;2.10;;
4597;SDS011;62772;48.646;8.906;2023-10-31T12:45:46;2.10;;;1.27;;
4597;SDS011;62772;48.646;8.906;2023-10-31T12:50:47;2.00;;;1.30;;
4597;SDS011;62772;48.646;8.906;2023-10-31T12:55:48;2.20;;;1.30;;
4597;SDS011;62772;48.646;8.906;2023-10-31T13:00:50;2.43;;;1.47;;
4597;SDS011;62772;48.646;8.906;2023-10-31T13:05:51;2.83;;;1.20;;
4597;SDS011;62772;48.646;8.906;2023-10-31T13:10:52;2.00;;;1.40;;
4597;SDS011;62772;48.646;8.906;2023-10-31T13:15:53;2.60;;;1.50;;
4597;SDS011;62772;48.646;8.906;2023-10-31T13:20:53;4.20;;;1.70;;
4597;SDS011;62772;48.646;8.906;2023-10-31T13:25:54;3.07;;;1.67;;
4597;SDS011;62772;48.646;8.906;2023-10-31T13:30:54;2.13;;;1.30;;
4597;SDS011;62772;48.646;8.906;2023-10-31T13:35:54;2.50;;;1.30;;
4597;SDS011;62772;48.646;8.906;2023-10-31T13:40:55;2.90;;;1.67;;
4597;SDS011;62772;48.646;8.906;2023-10-31T13:45:55;3.60;;;1.50;;
4597;SDS011;62772;48.646;8.906;2023-10-31T13:50:56;2.33;;;1.57;;
4597;SDS011;62772;48.646;8.906;2023-10-31T13:55:56;3.40;;;1.60;;
4597;SDS011;62772;48.646;8.906;2023-10-31T14:00:57;3.80;;;1.80;;
4597;SDS011;62772;48.646;8.906;2023-10-31T14:05:57;3.87;;;1.87;;
4597;SDS011;62772;48.646;8.906;2023-10-31T14:10:57;3.37;;;1.57;;
4597;SDS011;62772;48.646;8.906;2023-10-31T14:15:58;3.87;;;1.70;;
4597;SDS011;62772;48.646;8.906;2023-10-31T14:20:58;3.77;;;1.87;;
4597;SDS011;62772;48.646;8.906;2023-10-31T14:25:59;2.40;;;1.50;;
4597;SDS011;62772;48.646;8.906;2023-10-31T14:30:59;4.70;;;2.23;;
4597;SDS011;62772;48.646;8.906;2023-10-31T14:36:00;5.10;;;2.40;;
4597;SDS011;62772;48.646;8.906;2023-10-31T14:41:00;5.00;;;1.90;;
4597;SDS011;62772;48.646;8.906;2023-10-31T14:46:01;3.37;;;1.60;;
4597;SDS011;62772;48.646;8.906;2023-10-31T14:51:02;3.70;;;1.83;;
4597;SDS011;62772;48.646;8.906;2023-10-31T14:56:03;5.77;;;1.90;;
4597;SDS011;62772;48.646;8.906;2023-10-31T15:01:06;4.73;;;1.77;;
4597;SDS011;62772;48.646;8.906;2023-10-31T15:06:06;2.30;;;1.57;;
4597;SDS011;62772;48.646;8.906;2023-10-31T15:11:07;3.07;;;1.90;;
4597;SDS011;62772;48.646;8.906;2023-10-31T15:16:08;4.67;;;2.53;;
4597;SDS011;62772;48.646;8.906;2023-10-31T15:21:08;3.43;;;2.13;;
4597;SDS011;62772;48.646;8.906;2023-10-31T15:26:09;8.73;;;4.20;;
4597;SDS011;62772;48.646;8.906;2023-10-31T15:31:12;11.17;;;5.87;;
4597;SDS011;62772;48.646;8.906;2023-10-31T15:36:13;35.80;;;13.07;;
4597;SDS011;62772;48.646;8.906;2023-10-31T15:41:14;6.03;;;3.60;;
4597;SDS011;62772;48.646;8.906;2023-10-31T15:46:14;10.50;;;5.77;;
4597;SDS011;62772;48.646;8.906;2023-10-31T15:51:15;7.50;;;4.97;;
4597;SDS011;62772;48.646;8.906;2023-10-31T15:56:15;7.53;;;4.50;;
4597;SDS011;62772;48.646;8.906;2023-10-31T16:01:16;9.57;;;5.87;;
4597;SDS011;62772;48.646;8.906;2023-10-31T16:06:16;9.10;;;4.80;;
4597;SDS011;62772;48.646;8.906;2023-10-31T16:11:17;4.10;;;2.80;;
4597;SDS011;62772;48.646;8.906;2023-10-31T16:16:17;4.40;;;2.87;;
4597;SDS011;62772;48.646;8.906;2023-10-31T16:21:18;4.37;;;2.70;;
4597;SDS011;62772;48.646;8.906;2023-10-31T16:26:20;3.90;;;2.40;;
4597;SDS011;62772;48.646;8.906;2023-10-31T16:31:20;4.63;;;3.10;;
4597;SDS011;62772;48.646;8.906;2023-10-31T16:36:20;4.00;;;2.63;;
4597;SDS011;62772;48.646;8.906;2023-10-31T16:41:22;10.23;;;6.77;;
4597;SDS011;62772;48.646;8.906;2023-10-31T16:46:22;6.00;;;4.00;;
4597;SDS011;62772;48.646;8.906;2023-10-31T16:51:22;7.10;;;5.23;;
4597;SDS011;62772;48.646;8.906;2023-10-31T16:56:23;9.10;;;5.70;;
4597;SDS011;62772;48.646;8.906;2023-10-31T17:01:24;7.90;;;4.23;;
4597;SDS011;62772;48.646;8.906;2023-10-31T17:06:24;6.40;;;4.63;;
4597;SDS011;62772;48.646;8.906;2023-10-31T17:11:24;15.13;;;9.00;;
4597;SDS011;62772;48.646;8.906;2023-10-31T17:16:25;16.57;;;7.73;;
4597;SDS011;62772;48.646;8.906;2023-10-31T17:21:25;7.17;;;4.87;;
4597;SDS011;62772;48.646;8.906;2023-10-31T17:26:26;16.60;;;8.87;;
4597;SDS011;62772;48.646;8.906;2023-10-31T17:31:26;22.60;;;10.90;;
4597;SDS011;62772;48.646;8.906;2023-10-31T17:36:27;11.07;;;6.53;;
4597;SDS011;62772;48.646;8.906;2023-10-31T17:41:27;11.70;;;6.47;;
4597;SDS011;62772;48.646;8.906;2023-10-31T17:46:27;15.50;;;9.80;;
4597;SDS011;62772;48.646;8.906;2023-10-31T17:51:28;12.73;;;9.00;;
4597;SDS011;62772;48.646;8.906;2023-10-31T17:56:28;7.77;;;5.07;;
4597;SDS011;62772;48.646;8.906;2023-10-31T18:01:29;7.13;;;5.10;;
4597;SDS011;62772;48.646;8.906;2023-10-31T18:06:29;6.30;;;4.20;;
4597;SDS011;62772;48.646;8.906;2023-10-31T18:11:30;6.37;;;3.80;;
4597;SDS011;62772;48.646;8.906;2023-10-31T18:16:30;15.23;;;7.40;;
4597;SDS011;62772;48.646;8.906;2023-10-31T18:21:31;13.80;;;7.57;;
4597;SDS011;62772;48.646;8.906;2023-10-31T18:26:31;8.00;;;5.60;;
4597;SDS011;62772;48.646;8.906;2023-10-31T18:31:31;8.73;;;6.83;;
4597;SDS011;62772;48.646;8.906;2023-10-31T18:36:33;10.60;;;7.63;;
4597;SDS011;62772;48.646;8.906;2023-10-31T18:41:34;12.03;;;9.07;;
4597;SDS011;62772;48.646;8.906;2023-10-31T18:46:36;7.50;;;5.03;;
4597;SDS011;62772;48.646;8.906;2023-10-31T18:51:37;8.67;;;5.13;;
4597;SDS011;62772;48.646;8.906;2023-10-31T18:56:37;7.80;;;5.30;;
4597;SDS011;62772;48.646;8.906;2023-10-31T19:01:38;6.57;;;4.37;;
4597;SDS011;62772;48.646;8.906;2023-10-31T19:06:38;8.50;;;5.30;;
4597;SDS011;62772;48.646;8.906;2023-10-31T19:11:40;5.70;;;4.10;;
4597;SDS011;62772;48.646;8.906;2023-10-31T19:16:40;11.30;;;6.20;;
4597;SDS011;62772;48.646;8.906;2023-10-31T19:21:41;9.77;;;5.60;;
4597;SDS011;62772;48.646;8.906;2023-10-31T19:26:41;6.13;;;3.90;;
4597;SDS011;62772;48.646;8.906;2023-10-31T19:31:42;6.77;;;4.03;;
4597;SDS011;62772;48.646;8.906;2023-10-31T19:36:42;4.83;;;2.90;;
4597;SDS011;62772;48.646;8.906;2023-10-31T19:41:43;5.53;;;3.50;;
4597;SDS011;62772;48.646;8.906;2023-10-31T19:46:43;6.93;;;3.60;;
4597;SDS011;62772;48.646;8.906;2023-10-31T19:51:47;6.53;;;4.23;;
4597;SDS011;62772;48.646;8.906;2023-10-31T19:56:48;6.23;;;3.80;;
4597;SDS011;62772;48.646;8.906;2023-10-31T20:01:48;4.93;;;3.53;;
4597;SDS011;62772;48.646;8.906;2023-10-31T20:06:49;7.57;;;3.90;;
4597;SDS011;62772;48.646;8.906;2023-10-31T20:11:49;5.10;;;3.70;;
4597;SDS011;62772;48.646;8.906;2023-10-31T20:16:51;4.63;;;3.27;;
4597;SDS011;62772;48.646;8.906;2023-10-31T20:21:52;4.70;;;3.20;;
4597;SDS011;62772;48.646;8.906;2023-10-31T20:26:52;5.40;;;3.47;;
4597;SDS011;62772;48.646;8.906;2023-10-31T20:31:53;5.10;;;3.17;;
4597;SDS011;62772;48.646;8.906;2023-10-31T20:36:55;6.20;;;3.50;;
4597;SDS011;62772;48.646;8.906;2023-10-31T20:41:56;6.27;;;4.07;;
4597;SDS011;62772;48.646;8.906;2023-10-31T20:46:56;5.50;;;3.80;;
4597;SDS011;62772;48.646;8.906;2023-10-31T20:51:56;6.67;;;3.87;;
4597;SDS011;62772;48.646;8.906;2023-10-31T20:56:57;8.60;;;5.50;;
4597;SDS011;62772;48.646;8.906;2023-10-31T21:01:58;6.83;;;4.37;;
4597;SDS011;62772;48.646;8.906;2023-10-31T21:06:58;10.43;;;6.90;;
4597;SDS011;62772;48.646;8.906;2023-10-31T21:11:59;6.20;;;4.50;;
4597;SDS011;62772;48.646;8.906;2023-10-31T21:16:59;10.10;;;5.33;;
4597;SDS011;62772;48.646;8.906;2023-10-31T21:22:00;6.53;;;4.43;;
4597;SDS011;62772;48.646;8.906;2023-10-31T21:27:03;11.70;;;7.13;;
4597;SDS011;62772;48.646;8.906;2023-10-31T21:32:04;10.60;;;6.73;;
4597;SDS011;62772;48.646;8.906;2023-10-31T21:37:05;10.87;;;6.20;;
4597;SDS011;62772;48.646;8.906;2023-10-31T21:42:05;13.40;;;5.83;;
4597;SDS011;62772;48.646;8.906;2023-10-31T21:47:07;6.90;;;5.50;;
4597;SDS011;62772;48.646;8.906;2023-10-31T21:52:07;8.13;;;5.90;;
4597;SDS011;62772;48.646;8.906;2023-10-31T21:57:08;8.17;;;5.10;;
4597;SDS011;62772;48.646;8.906;2023-10-31T22:02:08;12.20;;;8.17;;
4597;SDS011;62772;48.646;8.906;2023-10-31T22:07:09;11.80;;;6.67;;
4597;SDS011;62772;48.646;8.906;2023-10-31T22:12:09;9.10;;;5.93;;
4597;SDS011;62772;48.646;8.906;2023-10-31T22:17:10;10.90;;;6.83;;
4597;SDS011;62772;48.646;8.906;2023-10-31T22:22:10;10.40;;;5.83;;
4597;SDS011;62772;48.646;8.906;2023-10-31T22:27:11;11.83;;;4.70;;
4597;SDS011;62772;48.646;8.906;2023-10-31T22:32:11;6.77;;;3.60;;
4597;SDS011;62772;48.646;8.906;2023-10-31T22:37:11;5.50;;;3.47;;
4597;SDS011;62772;48.646;8.906;2023-10-31T22:42:12;5.23;;;2.93;;
4597;SDS011;62772;48.646;8.906;2023-10-31T22:47:12;5.50;;;3.27;;
4597;SDS011;62772;48.646;8.906;2023-10-31T22:52:13;4.70;;;3.07;;
4597;SDS011;62772;48.646;8.906;2023-10-31T22:57:14;10.00;;;3.23;;
4597;SDS011;62772;48.646;8.906;2023-10-31T23:02:14;5.13;;;3.33;;
4597;SDS011;62772;48.646;8.906;2023-10-31T23:07:16;5.20;;;2.70;;
4597;SDS011;62772;48.646;8.906;2023-10-31T23:12:16;6.27;;;2.90;;
4597;SDS011;62772;48.646;8.906;2023-10-31T23:17:17;4.30;;;3.03;;
4597;SDS011;62772;48.646;8.906;2023-10-31T23:22:20;10.20;;;3.90;;
4597;SDS011;62772;48.646;8.906;2023-10-31T23:27:21;5.70;;;3.50;;
4597;SDS011;62772;48.646;8.906;2023-10-31T23:32:21;4.70;;;2.97;;
4597;SDS011;62772;48.646;8.906;2023-10-31T23:37:22;5.57;;;3.53;;
4597;SDS011;62772;48.646;8.906;2023-10-31T23:42:22;5.70;;;3.67;;
4597;SDS011;62772;48.646;8.906;2023-10-31T23:47:23;5.50;;;3.13;;
4597;SDS011;62772;48.646;8.906;2023-10-31T23:52:23;6.13;;;3.23;;
4597;SDS011;62772;48.646;8.906;2023-10-31T23:57:24;11.27;;;3.93;;
